createdAt,value
2022-11-12T00:00:30.046Z,18.67
2022-11-12T00:02:32.641Z,18.13
2022-11-12T00:04:35.199Z,24.17
2022-11-12T00:06:37.963Z,24.02
2022-11-12T00:08:40.584Z,22.27
2022-11-12T00:10:43.196Z,15.95
2022-11-12T00:12:45.889Z,16.80
2022-11-12T00:14:49.810Z,19.77
2022-11-12T00:16:52.394Z,23.20
2022-11-12T00:18:55.039Z,18.83
2022-11-12T00:20:57.847Z,27.63
2022-11-12T00:23:00.524Z,23.40
2022-11-12T00:25:03.240Z,18.38
2022-11-12T00:27:05.874Z,28.67
2022-11-12T00:29:08.439Z,16.38
2022-11-12T00:31:13.313Z,17.05
2022-11-12T00:33:15.893Z,17.60
2022-11-12T00:35:18.613Z,19.67
2022-11-12T00:37:23.130Z,17.83
2022-11-12T00:39:25.837Z,16.08
2022-11-12T00:41:28.464Z,16.50
2022-11-12T00:43:31.247Z,18.60
2022-11-12T00:45:33.840Z,13.20
2022-11-12T00:47:37.815Z,18.52
2022-11-12T00:49:40.385Z,24.30
2022-11-12T00:51:43.507Z,16.98
2022-11-12T00:53:48.855Z,15.73
2022-11-12T00:55:51.431Z,14.27
2022-11-12T00:57:54.023Z,12.23
2022-11-12T00:59:56.714Z,13.45
2022-11-12T01:01:59.276Z,19.15
2022-11-12T01:04:03.324Z,12.18
2022-11-12T01:06:07.247Z,12.63
2022-11-12T01:08:09.853Z,16.35
2022-11-12T01:10:15.620Z,16.20
2022-11-12T01:12:18.270Z,13.23
2022-11-12T01:14:20.842Z,12.43
2022-11-12T01:16:25.541Z,16.95
2022-11-12T01:18:28.546Z,22.45
2022-11-12T01:20:32.614Z,11.77
2022-11-12T01:22:35.257Z,22.25
2022-11-12T01:24:37.831Z,12.20
2022-11-12T01:26:41.424Z,19.33
2022-11-12T01:28:44.730Z,14.75
2022-11-12T01:30:47.329Z,21.13
2022-11-12T01:32:49.934Z,23.70
2022-11-12T01:34:53.278Z,19.30
2022-11-12T01:36:57.248Z,12.13
2022-11-12T01:38:59.910Z,31.52
2022-11-12T01:41:03.184Z,25.55
2022-11-12T01:43:12.951Z,11.90
2022-11-12T01:45:16.612Z,12.15
2022-11-12T01:47:22.441Z,17.20
2022-11-12T01:49:29.699Z,17.98
2022-11-12T01:51:35.542Z,21.60
2022-11-12T01:53:44.031Z,13.18
2022-11-12T01:55:46.816Z,13.77
2022-11-12T01:57:54.115Z,13.77
2022-11-12T02:00:01.858Z,22.67
2022-11-12T02:02:04.687Z,13.25
2022-11-12T02:04:07.308Z,18.88
2022-11-12T02:06:14.550Z,13.27
2022-11-12T02:08:17.318Z,40.17
2022-11-12T02:10:22.553Z,19.73
2022-11-12T02:12:42.458Z,17.52
2022-11-12T02:14:45.057Z,11.77
2022-11-12T02:16:49.892Z,8.82
2022-11-12T02:18:52.541Z,13.30
2022-11-12T02:20:56.636Z,10.10
2022-11-12T02:23:00.610Z,15.82
2022-11-12T02:25:03.263Z,12.55
2022-11-12T02:27:07.083Z,10.15
2022-11-12T02:29:09.970Z,11.13
2022-11-12T02:31:12.563Z,9.60
2022-11-12T02:33:15.276Z,11.68
2022-11-12T02:35:18.051Z,9.93
2022-11-12T02:37:20.649Z,9.38
2022-11-12T02:39:24.604Z,9.30
2022-11-12T02:41:27.271Z,17.00
2022-11-12T02:43:30.008Z,17.45
2022-11-12T02:45:33.064Z,17.42
2022-11-12T02:47:35.746Z,11.93
2022-11-12T02:49:38.332Z,27.05
2022-11-12T02:51:41.097Z,12.32
2022-11-12T02:53:43.694Z,25.63
2022-11-12T02:55:47.638Z,22.70
2022-11-12T02:57:52.966Z,31.90
2022-11-12T02:59:55.631Z,49.83
2022-11-12T03:01:58.233Z,32.95
2022-11-12T03:04:00.823Z,14.50
2022-11-12T03:06:03.429Z,13.35
2022-11-12T03:08:08.171Z,17.65
2022-11-12T03:10:11.043Z,11.93
2022-11-12T03:12:15.317Z,26.15
2022-11-12T03:14:17.978Z,39.05
2022-11-12T03:16:20.567Z,12.23
2022-11-12T03:18:23.278Z,18.10
2022-11-12T03:20:26.169Z,10.57
2022-11-12T03:22:28.785Z,13.45
2022-11-12T03:24:31.412Z,17.77
2022-11-12T03:26:35.944Z,12.98
2022-11-12T03:28:40.089Z,49.72
2022-11-12T03:30:44.754Z,12.10
2022-11-12T03:32:47.368Z,8.98
2022-11-12T03:34:55.146Z,11.40
2022-11-12T03:36:58.135Z,9.77
2022-11-12T03:39:00.781Z,9.93
2022-11-12T03:41:03.615Z,10.68
2022-11-12T03:43:06.261Z,12.48
2022-11-12T03:45:10.437Z,9.07
2022-11-12T03:47:13.014Z,11.98
2022-11-12T03:49:15.781Z,27.48
2022-11-12T03:51:19.086Z,8.07
2022-11-12T03:53:21.634Z,30.20
2022-11-12T03:55:25.689Z,9.95
2022-11-12T03:57:28.262Z,10.45
2022-11-12T03:59:30.842Z,8.00
2022-11-12T04:01:34.884Z,7.25
2022-11-12T04:03:37.544Z,15.32
2022-11-12T04:05:57.586Z,14.50
2022-11-12T04:08:18.563Z,13.13
2022-11-12T04:10:21.168Z,11.70
2022-11-12T04:12:52.819Z,32.10
2022-11-12T04:14:55.445Z,8.10
2022-11-12T04:17:16.792Z,7.07
2022-11-12T04:19:36.953Z,180.15
2022-11-12T04:21:55.572Z,32.63
2022-11-12T04:23:58.163Z,7.93
2022-11-12T04:26:18.290Z,8.80
2022-11-12T04:28:20.863Z,28.45
2022-11-12T04:30:22.494Z,21.25
2022-11-12T04:34:32.129Z,8.20
2022-11-12T04:36:34.717Z,15.93
2022-11-12T04:38:37.355Z,21.00
2022-11-12T04:40:57.729Z,13.95
2022-11-12T04:43:18.369Z,9.27
2022-11-12T04:45:20.938Z,13.20
2022-11-12T04:47:23.574Z,8.40
2022-11-12T04:49:27.687Z,6.97
2022-11-12T04:51:44.200Z,16.30
2022-11-12T04:53:46.764Z,13.40
2022-11-12T04:55:50.908Z,11.63
2022-11-12T04:58:00.305Z,9.93
2022-11-12T05:00:03.944Z,10.13
2022-11-12T05:02:06.512Z,10.82
2022-11-12T05:04:09.217Z,10.35
2022-11-12T05:06:27.111Z,9.65
2022-11-12T05:08:29.738Z,13.45
2022-11-12T05:10:32.603Z,9.63
2022-11-12T05:12:35.258Z,8.80
2022-11-12T05:14:38.128Z,8.30
2022-11-12T05:16:40.791Z,8.90
2022-11-12T05:18:43.408Z,10.93
2022-11-12T05:20:46.009Z,8.80
2022-11-12T05:23:04.984Z,9.23
2022-11-12T05:25:10.009Z,11.57
2022-11-12T05:27:15.090Z,9.73
2022-11-12T05:29:17.688Z,8.98
2022-11-12T05:31:20.260Z,9.18
2022-11-12T05:33:22.847Z,8.43
2022-11-12T05:35:25.460Z,12.32
2022-11-12T05:37:28.128Z,10.25
2022-11-12T05:39:32.040Z,9.60
2022-11-12T05:41:57.970Z,8.85
2022-11-12T05:43:57.395Z,9.77
2022-11-12T05:45:59.968Z,9.90
2022-11-12T05:48:02.518Z,9.95
2022-11-12T05:50:05.634Z,13.63
2022-11-12T05:52:08.263Z,7.68
2022-11-12T05:54:11.552Z,9.07
2022-11-12T05:56:15.594Z,10.25
2022-11-12T05:58:18.175Z,39.70
2022-11-12T06:00:21.046Z,10.05
2022-11-12T06:02:23.707Z,15.00
2022-11-12T06:04:26.334Z,10.73
2022-11-12T06:06:28.905Z,11.60
2022-11-12T06:08:31.578Z,12.05
2022-11-12T06:10:34.685Z,9.70
2022-11-12T06:12:38.665Z,10.35
2022-11-12T06:14:41.216Z,10.00
2022-11-12T06:16:44.876Z,9.07
2022-11-12T06:18:49.314Z,25.13
2022-11-12T06:21:05.923Z,21.50
2022-11-12T06:23:08.623Z,26.42
2022-11-12T06:25:11.283Z,42.10
2022-11-12T06:27:13.845Z,34.63
2022-11-12T06:29:17.766Z,23.85
2022-11-12T06:31:20.967Z,18.98
2022-11-12T06:33:23.622Z,7.45
2022-11-12T06:35:26.458Z,8.63
2022-11-12T06:37:29.019Z,11.15
2022-11-12T06:39:31.632Z,35.47
2022-11-12T06:41:34.227Z,15.93
2022-11-12T06:43:37.443Z,28.92
2022-11-12T06:45:41.347Z,29.77
2022-11-12T06:47:43.923Z,12.02
2022-11-12T06:49:46.559Z,9.60
2022-11-12T06:51:51.395Z,12.95
2022-11-12T06:53:55.191Z,8.95
2022-11-12T06:56:02.910Z,8.70
2022-11-12T06:58:05.544Z,11.07
2022-11-12T07:00:09.560Z,7.85
2022-11-12T07:02:14.174Z,8.80
2022-11-12T07:04:16.750Z,10.30
2022-11-12T07:06:20.471Z,9.27
2022-11-12T07:08:23.238Z,9.50
2022-11-12T07:10:25.955Z,9.52
2022-11-12T07:12:28.585Z,84.65
2022-11-12T07:14:31.185Z,55.35
2022-11-12T07:16:34.216Z,11.77
2022-11-12T07:18:38.487Z,54.72
2022-11-12T07:20:41.039Z,7.38
2022-11-12T07:22:43.676Z,14.73
2022-11-12T07:24:46.308Z,8.57
2022-11-12T07:26:48.882Z,9.32
2022-11-12T07:28:53.179Z,42.03
2022-11-12T07:30:57.506Z,12.18
2022-11-12T07:33:00.068Z,14.65
2022-11-12T07:35:04.110Z,9.70
2022-11-12T07:37:06.677Z,8.40
2022-11-12T07:39:09.234Z,9.70
2022-11-12T07:41:14.677Z,9.07
2022-11-12T07:43:17.254Z,14.48
2022-11-12T07:45:19.845Z,6.88
2022-11-12T07:47:22.501Z,16.23
2022-11-12T07:49:27.152Z,43.35
2022-11-12T07:51:31.553Z,9.20
2022-11-12T07:53:34.884Z,14.45
2022-11-12T07:55:37.564Z,46.70
2022-11-12T07:57:40.134Z,6.55
2022-11-12T07:59:46.072Z,5.60
2022-11-12T08:01:49.171Z,4.20
2022-11-12T08:03:51.950Z,5.10
2022-11-12T08:05:54.544Z,7.80
2022-11-12T08:07:58.613Z,7.22
2022-11-12T08:10:01.259Z,4.55
2022-11-12T08:12:03.818Z,8.98
2022-11-12T08:14:06.609Z,4.97
2022-11-12T08:16:09.458Z,6.93
2022-11-12T08:18:12.046Z,6.65
2022-11-12T08:20:15.152Z,12.30
2022-11-12T08:22:17.786Z,5.22
2022-11-12T08:24:21.732Z,5.18
2022-11-12T08:26:25.812Z,5.43
2022-11-12T08:28:30.054Z,6.28
2022-11-12T08:30:32.861Z,7.88
2022-11-12T08:32:35.512Z,7.93
2022-11-12T08:34:41.275Z,7.70
2022-11-12T08:36:43.850Z,10.32
2022-11-12T08:38:47.047Z,10.15
2022-11-12T08:40:50.975Z,7.50
2022-11-12T08:42:58.864Z,13.15
2022-11-12T08:45:01.424Z,16.88
2022-11-12T08:47:04.124Z,7.88
2022-11-12T08:49:06.698Z,37.28
2022-11-12T08:51:09.379Z,118.78
2022-11-12T08:53:14.551Z,20.45
2022-11-12T08:55:17.128Z,7.63
2022-11-12T08:57:21.186Z,8.63
2022-11-12T08:59:23.775Z,7.13
2022-11-12T09:01:26.801Z,15.02
2022-11-12T09:03:29.461Z,9.80
2022-11-12T09:05:32.485Z,16.48
2022-11-12T09:07:49.367Z,11.43
2022-11-12T09:09:55.232Z,6.93
2022-11-12T09:11:57.811Z,8.50
2022-11-12T09:14:01.835Z,8.73
2022-11-12T09:16:06.167Z,8.07
2022-11-12T09:18:13.907Z,10.77
2022-11-12T09:20:16.509Z,7.50
2022-11-12T09:22:19.179Z,7.57
2022-11-12T09:24:21.786Z,5.50
2022-11-12T09:26:24.417Z,9.43
2022-11-12T09:28:27.488Z,6.72
2022-11-12T09:30:31.646Z,8.25
2022-11-12T09:32:34.457Z,7.90
2022-11-12T09:34:37.116Z,7.68
2022-11-12T09:36:40.153Z,7.75
2022-11-12T09:38:42.832Z,7.72
2022-11-12T09:41:17.063Z,6.95
2022-11-12T09:43:24.512Z,7.70
2022-11-12T09:45:31.225Z,8.73
2022-11-12T09:47:39.198Z,6.78
2022-11-12T09:49:48.903Z,7.32
2022-11-12T09:51:54.153Z,7.57
2022-11-12T09:53:58.713Z,7.03
2022-11-12T09:56:02.868Z,6.70
2022-11-12T09:58:10.513Z,5.38
2022-11-12T10:00:17.574Z,6.47
2022-11-12T10:02:28.775Z,6.90
2022-11-12T10:04:59.575Z,7.05
2022-11-12T10:07:08.206Z,7.15
2022-11-12T10:09:14.894Z,9.65
2022-11-12T10:12:07.112Z,7.93
2022-11-12T10:14:20.909Z,9.20
2022-11-12T10:16:43.991Z,10.73
2022-11-12T10:18:56.315Z,10.77
2022-11-12T10:21:07.250Z,9.48
2022-11-12T10:23:18.531Z,8.27
2022-11-12T10:25:21.871Z,8.02
2022-11-12T10:27:29.009Z,8.35
2022-11-12T10:29:37.296Z,8.05
2022-11-12T10:31:40.142Z,10.65
2022-11-12T10:33:42.821Z,6.65
2022-11-12T10:35:45.565Z,5.88
2022-11-12T10:37:52.804Z,7.47
2022-11-12T10:39:55.779Z,7.43
2022-11-12T10:42:05.089Z,6.68
2022-11-12T10:44:14.686Z,11.05
2022-11-12T10:46:20.793Z,9.10
2022-11-12T10:48:28.809Z,7.78
2022-11-12T10:50:37.470Z,6.15
2022-11-12T10:52:40.139Z,16.00
2022-11-12T10:54:44.160Z,7.88
2022-11-12T10:56:47.165Z,8.93
2022-11-12T10:59:10.790Z,6.28
2022-11-12T11:01:18.765Z,7.68
2022-11-12T11:03:24.257Z,6.55
2022-11-12T11:05:31.638Z,6.63
2022-11-12T11:07:34.343Z,6.88
2022-11-12T11:09:36.919Z,6.90
2022-11-12T11:11:49.846Z,7.00
2022-11-12T11:13:55.957Z,7.30
2022-11-12T11:16:01.805Z,7.45
2022-11-12T11:18:04.654Z,8.60
2022-11-12T11:20:17.999Z,8.77
2022-11-12T11:22:30.354Z,7.55
2022-11-12T11:24:40.732Z,7.72
2022-11-12T11:26:56.572Z,8.18
2022-11-12T11:29:07.876Z,9.50
2022-11-12T11:31:20.438Z,7.78
2022-11-12T11:33:33.597Z,8.13
2022-11-12T11:35:50.985Z,8.75
2022-11-12T11:38:07.002Z,7.22
2022-11-12T11:40:16.725Z,8.15
2022-11-12T11:42:42.177Z,9.93
2022-11-12T11:44:51.492Z,7.82
2022-11-12T11:47:07.357Z,9.32
2022-11-12T11:49:29.647Z,7.80
2022-11-12T11:51:44.582Z,11.82
2022-11-12T11:53:58.083Z,8.88
2022-11-12T11:56:04.886Z,9.07
2022-11-12T11:58:17.331Z,7.93
2022-11-12T12:00:21.828Z,8.75
2022-11-12T12:02:45.626Z,7.93
2022-11-12T12:04:50.758Z,9.20
2022-11-12T12:07:07.034Z,8.20
2022-11-12T12:09:24.487Z,8.63
2022-11-12T12:11:35.510Z,9.60
2022-11-12T12:13:56.496Z,9.27
2022-11-12T12:16:23.996Z,7.82
2022-11-12T12:18:38.467Z,7.72
2022-11-12T12:20:49.627Z,9.27
2022-11-12T12:22:58.640Z,8.80
2022-11-12T12:25:07.081Z,7.63
2022-11-12T12:27:13.447Z,9.98
2022-11-12T12:29:23.813Z,8.07
2022-11-12T12:31:31.186Z,8.80
2022-11-12T12:33:40.990Z,7.97
2022-11-12T12:35:53.650Z,8.45
2022-11-12T12:38:06.969Z,12.38
2022-11-12T12:40:19.087Z,8.80
2022-11-12T12:42:27.276Z,7.95
2022-11-12T12:44:57.673Z,9.32
2022-11-12T12:47:02.198Z,8.90
2022-11-12T12:49:07.368Z,8.20
2022-11-12T12:51:10.765Z,7.95
2022-11-12T12:53:33.174Z,8.98
2022-11-12T12:55:39.599Z,7.03
2022-11-12T12:57:42.306Z,8.15
2022-11-12T12:59:46.276Z,7.63
2022-11-12T13:01:57.835Z,7.60
2022-11-12T13:04:05.008Z,10.43
2022-11-12T13:06:09.061Z,8.48
2022-11-12T13:08:14.838Z,9.18
2022-11-12T13:10:51.536Z,9.23
2022-11-12T13:13:07.173Z,6.32
2022-11-12T13:15:16.980Z,6.97
2022-11-12T13:17:45.859Z,6.95
2022-11-12T13:20:32.388Z,8.15
2022-11-12T13:22:51.054Z,8.48
2022-11-12T13:25:05.894Z,7.05
2022-11-12T13:27:08.517Z,7.90
2022-11-12T13:29:41.962Z,11.57
2022-11-12T13:31:44.595Z,7.95
2022-11-12T13:33:48.206Z,9.45
2022-11-12T13:35:50.935Z,8.88
2022-11-12T13:37:56.284Z,8.63
2022-11-12T13:40:04.528Z,10.52
2022-11-12T13:42:32.175Z,9.65
2022-11-12T13:44:36.299Z,10.23
2022-11-12T13:46:39.031Z,12.35
2022-11-12T13:48:44.852Z,12.02
2022-11-12T13:50:54.017Z,9.27
2022-11-12T13:52:58.375Z,10.10
2022-11-12T13:55:08.034Z,9.63
2022-11-12T13:57:15.422Z,14.05
2022-11-12T13:59:20.291Z,10.82
2022-11-12T14:01:25.474Z,10.25
2022-11-12T14:03:32.202Z,8.57
2022-11-12T14:05:38.029Z,10.15
2022-11-12T14:07:50.368Z,9.70
2022-11-12T14:10:05.183Z,11.50
2022-11-12T14:12:35.629Z,10.02
2022-11-12T14:14:53.432Z,9.32
2022-11-12T14:17:05.795Z,10.77
2022-11-12T14:19:41.144Z,10.98
2022-11-12T14:21:43.990Z,10.15
2022-11-12T14:23:48.830Z,10.35
2022-11-12T14:25:54.829Z,10.00
2022-11-12T14:27:57.651Z,9.38
2022-11-12T14:30:14.878Z,13.23
2022-11-12T14:32:18.080Z,10.68
2022-11-12T14:34:21.439Z,12.43
2022-11-12T14:36:24.715Z,10.25
2022-11-12T14:38:31.621Z,12.93
2022-11-12T14:40:36.888Z,11.48
2022-11-12T14:42:41.113Z,11.80
2022-11-12T14:44:43.795Z,12.80
2022-11-12T14:46:51.078Z,12.85
2022-11-12T14:48:57.324Z,15.10
2022-11-12T14:51:04.933Z,12.85
2022-11-12T14:53:13.620Z,10.07
2022-11-12T14:55:20.005Z,11.70
2022-11-12T14:57:26.948Z,12.20
2022-11-12T14:59:32.708Z,15.95
2022-11-12T15:04:18.173Z,14.88
2022-11-12T15:06:29.463Z,14.48
2022-11-12T15:08:34.661Z,13.38
2022-11-12T15:10:39.160Z,12.00
2022-11-12T15:12:41.953Z,13.30
2022-11-12T15:14:46.517Z,13.65
2022-11-12T15:16:49.444Z,11.63
2022-11-12T15:19:05.964Z,11.77
2022-11-12T15:21:15.295Z,11.60
2022-11-12T15:23:19.657Z,12.18
2022-11-12T15:25:24.093Z,12.95
2022-11-12T15:27:36.096Z,11.85
2022-11-12T15:29:38.707Z,11.77
2022-11-12T15:31:46.855Z,9.63
2022-11-12T15:33:49.583Z,13.00
2022-11-12T15:35:57.699Z,16.02
2022-11-12T15:38:03.306Z,13.13
2022-11-12T15:40:12.527Z,14.35
2022-11-12T15:42:18.475Z,14.52
2022-11-12T15:44:21.302Z,11.80
2022-11-12T15:46:24.037Z,10.00
2022-11-12T15:48:28.064Z,9.32
2022-11-12T15:50:32.440Z,12.18
2022-11-12T15:52:35.036Z,13.77
2022-11-12T15:54:41.074Z,14.25
2022-11-12T15:56:44.625Z,12.20
2022-11-12T15:58:47.238Z,13.35
2022-11-12T16:00:49.941Z,13.20
2022-11-12T16:02:59.384Z,10.18
2022-11-12T16:05:03.390Z,13.60
2022-11-12T16:07:06.989Z,22.58
2022-11-12T16:09:09.627Z,19.40
2022-11-12T16:11:33.703Z,17.77
2022-11-12T16:13:37.534Z,25.58
2022-11-12T16:15:40.387Z,29.10
2022-11-12T16:17:43.047Z,33.22
2022-11-12T16:19:45.705Z,24.45
2022-11-12T16:21:50.461Z,21.50
2022-11-12T16:23:53.114Z,26.80
2022-11-12T16:25:55.885Z,23.13
2022-11-12T16:28:01.872Z,21.17
2022-11-12T16:30:05.320Z,19.80
2022-11-12T16:32:08.051Z,18.58
2022-11-12T16:34:10.865Z,20.67
2022-11-12T16:36:15.644Z,17.80
2022-11-12T16:38:19.902Z,21.30
2022-11-12T16:40:25.085Z,17.55
2022-11-12T16:42:27.675Z,15.57
2022-11-12T16:44:30.315Z,16.40
2022-11-12T16:46:40.066Z,19.92
2022-11-12T16:48:42.746Z,20.63
2022-11-12T16:50:45.430Z,19.13
2022-11-12T16:52:48.123Z,17.73
2022-11-12T16:54:52.287Z,19.95
2022-11-12T16:56:54.947Z,18.85
2022-11-12T16:58:57.537Z,19.75
2022-11-12T17:01:00.190Z,18.52
2022-11-12T17:03:02.788Z,17.13
2022-11-12T17:05:07.747Z,15.20
2022-11-12T17:07:10.363Z,16.90
2022-11-12T17:09:13.266Z,18.23
2022-11-12T17:11:17.267Z,14.40
2022-11-12T17:13:19.843Z,16.20
2022-11-12T17:15:22.446Z,18.52
2022-11-12T17:17:25.170Z,18.45
2022-11-12T17:19:27.840Z,16.63
2022-11-12T17:21:30.939Z,16.73
2022-11-12T17:23:33.541Z,17.38
2022-11-12T17:25:36.104Z,19.80
2022-11-12T17:27:40.031Z,20.98
2022-11-12T17:29:42.657Z,19.45
2022-11-12T17:31:48.355Z,17.75
2022-11-12T17:33:52.226Z,18.65
2022-11-12T17:35:54.822Z,15.88
2022-11-12T17:37:57.410Z,25.38
2022-11-12T17:40:00.023Z,24.38
2022-11-12T17:42:02.579Z,19.52
2022-11-12T17:44:07.397Z,20.67
2022-11-12T17:46:10.919Z,24.38
2022-11-12T17:48:13.527Z,23.67
2022-11-12T17:50:16.607Z,17.83
2022-11-12T17:52:19.205Z,22.15
2022-11-12T17:54:22.105Z,23.40
2022-11-12T17:56:25.068Z,22.65
2022-11-12T17:58:27.707Z,22.38
2022-11-12T18:00:31.762Z,26.83
2022-11-12T18:02:34.353Z,27.90
2022-11-12T18:04:37.121Z,24.67
2022-11-12T18:06:39.768Z,30.27
2022-11-12T18:08:43.489Z,25.65
2022-11-12T18:10:46.094Z,28.90
2022-11-12T18:12:48.649Z,28.95
2022-11-12T18:14:51.290Z,29.73
2022-11-12T18:16:56.870Z,34.55
2022-11-12T18:18:59.487Z,38.40
2022-11-12T18:21:02.086Z,36.13
2022-11-12T18:23:05.004Z,39.13
2022-11-12T18:25:08.695Z,42.10
2022-11-12T18:27:11.279Z,48.05
2022-11-12T18:29:13.941Z,43.28
2022-11-12T18:31:17.424Z,47.08
2022-11-12T18:33:21.319Z,61.38
2022-11-12T18:35:29.498Z,56.50
2022-11-12T18:37:32.526Z,52.63
2022-11-12T18:39:35.139Z,51.72
2022-11-12T18:41:37.723Z,49.78
2022-11-12T18:43:40.941Z,50.55
2022-11-12T18:45:54.017Z,50.33
2022-11-12T18:47:56.598Z,48.60
2022-11-12T18:50:04.208Z,44.70
2022-11-12T18:52:10.957Z,51.03
2022-11-12T18:54:13.809Z,52.30
2022-11-12T18:56:18.391Z,54.78
2022-11-12T18:58:20.985Z,58.78
2022-11-12T19:00:23.789Z,55.13
2022-11-12T19:02:26.383Z,50.03
2022-11-12T19:04:29.159Z,44.22
2022-11-12T19:06:33.351Z,45.67
2022-11-12T19:08:36.236Z,44.55
2022-11-12T19:10:38.960Z,42.53
2022-11-12T19:12:42.438Z,43.05
2022-11-12T19:14:45.038Z,46.67
2022-11-12T19:16:47.633Z,39.08
2022-11-12T19:18:51.668Z,45.15
2022-11-12T19:21:01.792Z,42.65
2022-11-12T19:23:05.682Z,40.10
2022-11-12T19:25:09.606Z,39.95
2022-11-12T19:27:12.226Z,40.15
2022-11-12T19:29:14.813Z,38.47
2022-11-12T19:31:19.465Z,37.00
2022-11-12T19:33:22.075Z,43.15
2022-11-12T19:35:24.633Z,42.28
2022-11-12T19:37:33.420Z,39.42
2022-11-12T19:39:38.038Z,41.20
2022-11-12T19:41:40.625Z,39.45
2022-11-12T19:43:43.629Z,31.35
2022-11-12T19:45:46.271Z,30.35
2022-11-12T19:47:51.941Z,33.17
2022-11-12T19:49:54.535Z,30.70
2022-11-12T19:51:57.163Z,31.30
2022-11-12T19:53:59.912Z,29.85
2022-11-12T19:56:06.595Z,33.03
2022-11-12T19:58:09.537Z,30.75
2022-11-12T20:00:13.577Z,32.72
2022-11-12T20:02:16.481Z,28.73
2022-11-12T20:04:24.009Z,27.17
2022-11-12T20:06:28.039Z,27.13
2022-11-12T20:08:30.825Z,31.45
2022-11-12T20:10:33.450Z,26.77
2022-11-12T20:12:40.033Z,21.88
2022-11-12T20:14:42.672Z,23.27
2022-11-12T20:16:45.276Z,32.78
2022-11-12T20:18:50.956Z,22.80
2022-11-12T20:20:56.182Z,25.77
2022-11-12T20:22:58.766Z,26.02
2022-11-12T20:25:01.811Z,22.42
2022-11-12T20:27:05.621Z,21.30
2022-11-12T20:29:09.602Z,21.65
2022-11-12T20:31:14.337Z,19.73
2022-11-12T20:33:17.174Z,19.88
2022-11-12T20:35:22.338Z,22.63
2022-11-12T20:37:25.726Z,27.65
2022-11-12T20:39:28.320Z,30.35
2022-11-12T20:41:31.323Z,27.35
2022-11-12T20:43:34.170Z,24.05
2022-11-12T20:45:38.163Z,26.65
2022-11-12T20:47:41.029Z,23.20
2022-11-12T20:49:43.613Z,29.02
2022-11-12T20:51:46.221Z,24.92
2022-11-12T20:53:49.125Z,28.45
2022-11-12T20:55:51.815Z,31.08
2022-11-12T20:57:54.381Z,32.17
2022-11-12T20:59:57.004Z,66.55
2022-11-12T21:02:01.268Z,71.82
2022-11-12T21:04:03.930Z,59.00
2022-11-12T21:06:08.662Z,46.00
2022-11-12T21:08:11.259Z,81.85
2022-11-12T21:10:14.141Z,73.60
2022-11-12T21:12:16.779Z,91.53
2022-11-12T21:14:19.674Z,85.60
2022-11-12T21:16:22.373Z,42.45
2022-11-12T21:18:28.327Z,47.53
2022-11-12T21:20:31.127Z,49.47
2022-11-12T21:22:33.715Z,43.35
2022-11-12T21:24:36.386Z,39.65
2022-11-12T21:26:39.022Z,39.75
2022-11-12T21:28:43.604Z,31.27
2022-11-12T21:30:46.181Z,32.80
2022-11-12T21:32:48.845Z,32.42
2022-11-12T21:34:52.807Z,27.50
2022-11-12T21:36:55.388Z,29.42
2022-11-12T21:38:58.517Z,25.63
2022-11-12T21:41:06.027Z,30.40
2022-11-12T21:43:08.592Z,29.65
2022-11-12T21:45:12.177Z,29.20
2022-11-12T21:47:15.290Z,35.38
2022-11-12T21:49:17.936Z,30.73
2022-11-12T21:51:23.931Z,33.00
2022-11-12T21:53:26.550Z,33.80
2022-11-12T21:55:29.130Z,34.88
2022-11-12T21:57:31.863Z,28.80
2022-11-12T21:59:34.666Z,33.50
2022-11-12T22:01:37.386Z,30.50
2022-11-12T22:03:40.470Z,26.23
2022-11-12T22:05:43.112Z,32.10
2022-11-12T22:07:47.154Z,29.85
2022-11-12T22:09:55.356Z,27.92
2022-11-12T22:11:59.329Z,34.97
2022-11-12T22:14:02.395Z,54.78
2022-11-12T22:16:06.824Z,29.27
2022-11-12T22:18:09.476Z,56.75
2022-11-12T22:20:12.726Z,69.93
2022-11-12T22:22:15.370Z,54.97
2022-11-12T22:24:19.347Z,53.28
2022-11-12T22:26:25.181Z,32.25
2022-11-12T22:28:28.185Z,29.17
2022-11-12T22:30:31.009Z,25.58
2022-11-12T22:32:33.603Z,37.03
2022-11-12T22:34:36.172Z,43.33
2022-11-12T22:36:38.816Z,30.17
2022-11-12T22:38:42.777Z,31.48
2022-11-12T22:40:46.732Z,34.35
2022-11-12T22:42:49.299Z,37.20
2022-11-12T22:44:51.870Z,43.83
2022-11-12T22:46:54.477Z,36.88
2022-11-12T22:48:59.142Z,67.35
2022-11-12T22:51:02.278Z,29.50
2022-11-12T22:53:04.945Z,57.47
2022-11-12T22:55:08.087Z,64.03
2022-11-12T22:57:12.034Z,96.13
2022-11-12T22:59:14.751Z,130.50
2022-11-12T23:01:22.659Z,87.40
2022-11-12T23:03:25.346Z,81.82
2022-11-12T23:05:27.972Z,128.23
2022-11-12T23:07:30.641Z,76.20
2022-11-12T23:09:33.268Z,97.05
2022-11-12T23:11:38.250Z,77.80
2022-11-12T23:13:42.351Z,91.65
2022-11-12T23:15:45.236Z,92.85
2022-11-12T23:17:47.807Z,33.40
2022-11-12T23:19:50.416Z,31.98
2022-11-12T23:21:53.298Z,59.47
2022-11-12T23:23:57.371Z,74.32
2022-11-12T23:26:05.184Z,37.08
2022-11-12T23:28:07.974Z,48.25
2022-11-12T23:30:13.000Z,28.20
2022-11-12T23:32:15.651Z,22.42
2022-11-12T23:34:18.229Z,38.10
2022-11-12T23:36:24.681Z,28.20
2022-11-12T23:38:27.546Z,25.05
2022-11-12T23:40:31.351Z,41.38
2022-11-12T23:42:34.067Z,42.97
2022-11-12T23:44:36.615Z,25.15
2022-11-12T23:46:40.534Z,18.30
2022-11-12T23:48:43.202Z,16.23
2022-11-12T23:50:46.618Z,23.38
2022-11-12T23:52:49.216Z,38.53
2022-11-12T23:54:51.784Z,17.23
2022-11-12T23:56:54.357Z,40.13
2022-11-12T23:58:56.945Z,44.15
